Time;durP1;ratioP1;P1;durP2;ratioP2;P2;SDS_P1;SDS_P2;PMS_P1;PMS_P2;Temp;Humidity;BMP_temperature;BMP_pressure;BME280_temperature;BME280_humidity;BME280_pressure;Samples;Min_cycle;Max_cycle;Signal;HPM_P1;HPM_P2
2023/06/13 00:00:47;;;;;;;8.88;2.95;;;26.80;99.90;;;;;;4971832;28;20067;-54
2023/06/13 00:03:13;;;;;;;7.55;2.50;;;26.80;99.90;;;;;;4957330;29;20110;-53
2023/06/13 00:05:46;;;;;;;6.72;2.55;;;26.70;99.90;;;;;;4957234;28;20050;-56
2023/06/13 00:08:18;;;;;;;4.35;1.95;;;26.70;99.90;;;;;;4956822;29;20023;-51
2023/06/13 00:10:51;;;;;;;6.05;1.88;;;26.70;99.90;;;;;;4944304;28;20492;-52
2023/06/13 00:13:18;;;;;;;7.97;3.15;;;26.70;99.90;;;;;;4956363;28;20053;-52
2023/06/13 00:15:54;;;;;;;8.98;3.00;;;26.70;99.90;;;;;;4956995;29;20110;-52
2023/06/13 00:18:22;;;;;;;6.40;2.53;;;26.80;99.90;;;;;;4957219;29;20118;-52
2023/06/13 00:20:54;;;;;;;7.75;3.08;;;26.80;99.90;;;;;;4956983;28;20642;-53
2023/06/13 00:23:21;;;;;;;7.75;2.40;;;26.80;99.90;;;;;;4956510;28;20026;-49
2023/06/13 00:25:47;;;;;;;5.13;2.40;;;26.80;99.90;;;;;;4956944;29;20074;-51
2023/06/13 00:28:12;;;;;;;5.43;2.22;;;26.80;99.90;;;;;;4971393;28;20023;-54
2023/06/13 00:30:38;;;;;;;4.45;2.05;;;26.80;99.90;;;;;;4956463;28;20043;-51
2023/06/13 00:33:07;;;;;;;5.57;1.80;;;26.80;99.90;;;;;;4956581;28;20020;-53
2023/06/13 00:35:35;;;;;;;5.97;2.30;;;26.80;99.90;;;;;;4956892;29;20019;-52
2023/06/13 00:38:01;;;;;;;;;;;26.70;99.90;;;;;;4956700;29;20536;-51
2023/06/13 00:40:27;;;;;;;2.92;1.63;;;26.80;99.90;;;;;;4956530;29;20315;-55
2023/06/13 00:42:55;;;;;;;2.70;1.60;;;26.70;99.90;;;;;;4971390;28;20082;-54
2023/06/13 00:45:22;;;;;;;5.50;2.42;;;26.70;99.90;;;;;;4956116;29;20033;-54
2023/06/13 00:47:58;;;;;;;4.78;1.58;;;26.70;99.90;;;;;;4956584;29;20020;-55
2023/06/13 00:50:54;;;;;;;3.35;1.77;;;26.70;99.90;;;;;;4971301;28;20043;-54
2023/06/13 00:53:21;;;;;;;3.67;1.83;;;26.80;99.90;;;;;;4954447;29;20384;-52
2023/06/13 00:55:49;;;;;;;3.78;1.60;;;26.80;99.90;;;;;;4971293;28;20478;-51
2023/06/13 00:58:16;;;;;;;6.72;2.15;;;26.80;99.90;;;;;;4955739;29;20461;-52
2023/06/13 01:00:44;;;;;;;6.57;1.88;;;26.90;99.90;;;;;;4956243;28;20031;-53
2023/06/13 01:03:14;;;;;;;2.95;1.60;;;26.90;99.90;;;;;;4970826;28;20047;-53
2023/06/13 01:05:40;;;;;;;4.55;1.80;;;26.90;99.90;;;;;;4956172;29;20039;-53
2023/06/13 01:08:09;;;;;;;5.53;2.78;;;27.00;99.90;;;;;;4956089;28;20547;-52
2023/06/13 01:10:40;;;;;;;8.93;2.22;;;27.00;99.90;;;;;;4970342;28;20497;-52
2023/06/13 01:13:18;;;;;;;4.90;2.58;;;27.00;99.90;;;;;;4956103;29;20034;-51
2023/06/13 01:16:07;;;;;;;5.00;2.05;;;27.10;99.90;;;;;;4970773;28;20023;-52
2023/06/13 01:18:37;;;;;;;4.05;2.08;;;27.10;99.90;;;;;;4955858;28;20019;-52
2023/06/13 01:21:04;;;;;;;6.30;2.17;;;27.20;99.90;;;;;;4955935;29;20047;-51
2023/06/13 01:23:36;;;;;;;4.38;2.03;;;27.20;99.90;;;;;;4955841;28;20086;-52
2023/06/13 01:26:20;;;;;;;4.35;2.47;;;27.20;99.90;;;;;;4960105;28;20484;-52
2023/06/13 01:28:51;;;;;;;9.82;3.28;;;27.20;99.90;;;;;;4955373;28;20074;-52
2023/06/13 01:31:19;;;;;;;7.07;2.70;;;27.20;99.90;;;;;;4981315;28;20117;-52
2023/06/13 01:33:45;;;;;;;;;;;27.20;99.90;;;;;;4974987;28;20060;-53
2023/06/13 01:36:12;;;;;;;7.88;2.53;;;27.30;99.90;;;;;;4960619;28;19907;-53
2023/06/13 01:38:38;;;;;;;7.55;2.67;;;27.20;99.90;;;;;;4953700;28;20518;-53
2023/06/13 01:41:04;;;;;;;7.53;2.30;;;27.20;99.90;;;;;;4952868;28;20031;-54
2023/06/13 01:43:30;;;;;;;7.03;2.72;;;27.30;99.90;;;;;;4955666;29;20031;-54
2023/06/13 01:46:24;;;;;;;7.05;2.42;;;27.20;99.90;;;;;;4955241;28;20531;-55
2023/06/13 01:49:16;;;;;;;8.88;3.05;;;27.30;99.90;;;;;;4953713;29;20563;-54
2023/06/13 01:51:59;;;;;;;4.32;2.20;;;27.30;99.90;;;;;;4945559;28;20488;-54
2023/06/13 01:54:26;;;;;;;5.28;2.30;;;27.20;99.90;;;;;;4945219;29;20031;-54
2023/06/13 01:56:56;;;;;;;5.38;2.22;;;27.30;99.90;;;;;;4955013;28;20027;-54
2023/06/13 01:59:28;;;;;;;5.35;2.25;;;27.30;99.90;;;;;;4955185;28;20024;-52
2023/06/13 02:01:56;;;;;;;5.78;1.92;;;27.20;99.90;;;;;;4955610;29;20043;-53
2023/06/13 02:04:21;;;;;;;5.78;1.92;;;27.30;99.90;;;;;;4941567;28;20074;-51
2023/06/13 02:06:48;;;;;;;5.93;2.30;;;27.20;99.90;;;;;;4970196;28;20027;-52
2023/06/13 02:09:13;;;;;;;7.30;2.50;;;27.20;99.90;;;;;;4954828;28;20126;-50
2023/06/13 02:11:39;;;;;;;5.90;2.15;;;27.20;99.90;;;;;;4954816;28;20098;-50
2023/06/13 02:14:06;;;;;;;4.38;2.08;;;27.20;99.90;;;;;;4969545;28;20023;-50
2023/06/13 02:16:32;;;;;;;7.00;2.97;;;27.20;99.90;;;;;;4955016;28;20007;-50
2023/06/13 02:19:01;;;;;;;7.68;2.53;;;27.20;99.90;;;;;;4954859;29;20293;-50
2023/06/13 02:21:29;;;;;;;8.15;2.60;;;27.20;99.90;;;;;;4954812;28;20023;-50
2023/06/13 02:23:55;;;;;;;6.90;2.13;;;27.20;99.90;;;;;;4955224;28;20102;-50
2023/06/13 02:26:23;;;;;;;9.50;2.92;;;27.20;99.90;;;;;;4954756;29;20051;-50
2023/06/13 02:28:49;;;;;;;4.30;2.10;;;27.10;99.90;;;;;;4954997;28;20078;-51
2023/06/13 02:31:15;;;;;;;4.55;2.42;;;27.10;99.90;;;;;;4955175;28;20444;-50
2023/06/13 02:33:43;;;;;;;6.35;2.35;;;27.10;99.90;;;;;;4954750;29;20020;-51
2023/06/13 02:36:09;;;;;;;4.13;2.13;;;27.10;99.90;;;;;;4954860;28;20027;-51
2023/06/13 02:38:36;;;;;;;6.88;1.80;;;27.10;99.90;;;;;;4958909;28;20034;-51
2023/06/13 02:41:03;;;;;;;5.70;2.22;;;27.10;99.90;;;;;;4958649;28;20042;-51
2023/06/13 02:43:29;;;;;;;5.00;2.00;;;27.10;99.90;;;;;;4958889;28;20024;-51
2023/06/13 02:45:55;;;;;;;5.40;2.40;;;27.10;99.90;;;;;;4958932;28;20054;-51
2023/06/13 02:48:23;;;;;;;5.95;2.53;;;27.10;99.90;;;;;;4958520;28;20019;-51
2023/06/13 02:50:49;;;;;;;6.13;2.05;;;27.10;99.90;;;;;;4973263;28;20460;-52
2023/06/13 02:53:15;;;;;;;7.00;2.35;;;27.10;99.90;;;;;;4958683;28;20020;-52
2023/06/13 02:55:46;;;;;;;6.97;1.92;;;27.10;99.90;;;;;;4958227;28;20027;-52
2023/06/13 02:58:13;;;;;;;5.53;1.98;;;27.10;99.90;;;;;;4958538;28;20058;-51
2023/06/13 03:00:39;;;;;;;4.53;2.15;;;27.10;99.90;;;;;;4977481;23;20081;-61
2023/06/13 03:03:04;;;;;;;4.72;2.05;;;27.00;99.90;;;;;;4997031;28;20026;-60
2023/06/13 03:05:36;;;;;;;5.95;2.72;;;27.00;99.90;;;;;;4984185;28;20036;-61
2023/06/13 03:08:02;;;;;;;3.45;2.25;;;27.10;99.90;;;;;;4997019;28;20034;-61
2023/06/13 03:10:28;;;;;;;6.03;2.15;;;27.00;99.90;;;;;;4996609;28;20031;-61
2023/06/13 03:12:53;;;;;;;4.13;1.90;;;27.00;99.90;;;;;;4996873;28;20390;-61
2023/06/13 03:15:19;;;;;;;4.50;1.90;;;27.00;99.90;;;;;;4996989;28;20480;-62
2023/06/13 03:17:45;;;;;;;3.28;1.65;;;27.00;99.90;;;;;;4997132;28;20019;-62
2023/06/13 03:20:11;;;;;;;4.38;2.25;;;27.00;99.90;;;;;;4997177;28;20105;-61
2023/06/13 03:22:37;;;;;;;6.75;2.33;;;27.00;99.90;;;;;;4996700;28;20050;-61
2023/06/13 03:25:06;;;;;;;8.57;2.10;;;27.00;99.90;;;;;;4985348;28;20077;-61
2023/06/13 03:27:33;;;;;;;6.60;1.73;;;27.00;99.90;;;;;;4995446;28;20026;-61
2023/06/13 03:29:59;;;;;;;5.60;1.80;;;27.00;99.90;;;;;;4995309;28;20038;-61
2023/06/13 03:32:25;;;;;;;7.28;2.20;;;27.00;99.90;;;;;;4996418;28;20037;-61
2023/06/13 03:34:52;;;;;;;5.55;2.10;;;27.00;99.90;;;;;;4996664;28;20482;-61
2023/06/13 03:37:19;;;;;;;3.63;1.85;;;27.00;99.90;;;;;;4996478;28;20053;-61
2023/06/13 03:39:45;;;;;;;5.47;1.98;;;27.00;99.90;;;;;;4996525;28;20027;-62
2023/06/13 03:42:11;;;;;;;5.70;2.20;;;27.00;99.90;;;;;;4996282;28;20359;-61
2023/06/13 03:44:37;;;;;;;4.22;1.90;;;27.00;99.90;;;;;;4996468;28;20399;-60
2023/06/13 03:47:03;;;;;;;5.30;2.20;;;27.00;99.90;;;;;;4995985;28;20026;-61
2023/06/13 03:49:29;;;;;;;10.82;2.30;;;26.90;99.90;;;;;;4994935;28;20049;-58
2023/06/13 03:51:54;;;;;;;5.68;2.25;;;26.90;99.90;;;;;;4996249;28;20030;-60
2023/06/13 03:54:21;;;;;;;4.97;2.10;;;27.00;99.90;;;;;;4995007;28;20023;-59
2023/06/13 03:56:47;;;;;;;3.78;1.75;;;26.90;99.90;;;;;;4996169;28;20026;-61
2023/06/13 03:59:13;;;;;;;5.38;2.05;;;26.90;99.90;;;;;;4989909;28;20074;-62
2023/06/13 04:01:41;;;;;;;4.72;2.35;;;26.90;99.90;;;;;;4990069;28;20046;-61
2023/06/13 04:04:08;;;;;;;6.30;1.88;;;26.90;99.90;;;;;;4996369;28;20022;-61
2023/06/13 04:06:34;;;;;;;;;;;26.90;99.90;;;;;;4995030;28;20058;-61
2023/06/13 04:09:02;;;;;;;3.70;2.08;;;26.90;99.90;;;;;;4996007;28;19987;-61
2023/06/13 04:11:29;;;;;;;7.18;1.80;;;26.90;99.90;;;;;;4995998;28;20014;-61
2023/06/13 04:13:54;;;;;;;3.45;1.77;;;26.90;99.90;;;;;;4995733;28;20022;-62
2023/06/13 04:16:20;;;;;;;4.57;2.03;;;26.90;99.90;;;;;;4995882;28;20085;-61
2023/06/13 04:18:46;;;;;;;6.35;1.88;;;26.90;99.90;;;;;;4977974;28;20028;-62
2023/06/13 04:21:12;;;;;;;5.47;1.95;;;26.90;99.90;;;;;;4995549;28;20041;-61
2023/06/13 04:23:38;;;;;;;4.45;2.10;;;26.90;99.90;;;;;;4995713;28;20020;-61
2023/06/13 04:26:05;;;;;;;3.13;1.75;;;26.90;99.90;;;;;;4995189;28;20105;-59
2023/06/13 04:28:32;;;;;;;4.65;1.63;;;26.90;99.90;;;;;;4994458;28;20431;-60
2023/06/13 04:31:00;;;;;;;4.70;1.90;;;26.90;99.90;;;;;;4994420;28;20030;-60
2023/06/13 04:33:26;;;;;;;4.38;1.67;;;26.90;99.90;;;;;;4995156;28;20037;-61
2023/06/13 04:35:53;;;;;;;3.97;1.70;;;26.90;99.90;;;;;;4995171;28;20057;-60
2023/06/13 04:38:21;;;;;;;4.03;1.60;;;26.80;99.90;;;;;;4995362;28;20022;-60
2023/06/13 04:40:47;;;;;;;4.22;1.67;;;26.80;99.90;;;;;;4995100;28;20069;-60
2023/06/13 04:43:16;;;;;;;4.97;1.50;;;26.80;99.90;;;;;;4982491;28;20073;-60
2023/06/13 04:45:43;;;;;;;2.95;1.20;;;26.80;99.90;;;;;;4970239;28;20426;-59
2023/06/13 04:48:10;;;;;;;4.15;1.73;;;26.80;99.90;;;;;;4995014;28;20022;-61
2023/06/13 04:50:41;;;;;;;2.65;1.02;;;26.80;99.90;;;;;;4995251;28;20498;-61
2023/06/13 04:53:15;;;;;;;2.75;1.40;;;26.80;99.90;;;;;;4993804;28;20117;-61
2023/06/13 04:55:42;;;;;;;4.43;1.38;;;26.80;99.90;;;;;;4994974;28;20065;-60
2023/06/13 04:58:08;;;;;;;4.03;1.10;;;26.80;99.90;;;;;;4994888;28;20482;-60
2023/06/13 05:00:34;;;;;;;5.65;2.08;;;26.80;99.90;;;;;;4994364;28;20133;-61
2023/06/13 05:03:00;;;;;;;7.35;1.55;;;26.80;99.90;;;;;;4994673;28;20042;-61
2023/06/13 05:05:26;;;;;;;4.07;1.65;;;26.80;99.90;;;;;;4994787;28;20465;-61
2023/06/13 05:07:59;;;;;;;3.72;1.40;;;26.80;99.90;;;;;;4994977;28;20050;-61
2023/06/13 05:10:25;;;;;;;7.25;1.67;;;26.80;99.90;;;;;;4993104;28;20038;-61
2023/06/13 05:12:52;;;;;;;4.40;1.45;;;26.80;99.90;;;;;;4994821;28;20018;-62
2023/06/13 05:15:19;;;;;;;2.83;1.40;;;26.70;99.90;;;;;;4994710;28;20029;-62
2023/06/13 05:17:45;;;;;;;;;;;26.80;99.90;;;;;;4994984;28;20026;-61
2023/06/13 05:20:12;;;;;;;2.28;1.10;;;26.80;99.90;;;;;;4981815;28;19960;-60
2023/06/13 05:22:39;;;;;;;5.57;1.50;;;26.80;99.90;;;;;;4993230;28;20418;-60
2023/06/13 05:25:08;;;;;;;3.88;1.33;;;26.80;99.90;;;;;;4994474;28;20057;-62
2023/06/13 05:27:34;;;;;;;3.55;1.38;;;26.70;99.90;;;;;;4994531;28;20031;-61
2023/06/13 05:30:00;;;;;;;2.15;1.17;;;26.70;99.90;;;;;;4994415;28;20073;-61
2023/06/13 05:32:26;;;;;;;2.17;1.02;;;26.70;99.90;;;;;;4994262;28;20050;-62
2023/06/13 05:34:52;;;;;;;3.95;1.70;;;26.70;99.90;;;;;;4994270;28;20077;-60
2023/06/13 05:37:18;;;;;;;5.53;1.60;;;26.70;99.90;;;;;;4994267;28;20967;-60
2023/06/13 05:39:44;;;;;;;4.68;1.90;;;26.70;99.90;;;;;;4982884;28;20034;-61
2023/06/13 05:42:10;;;;;;;7.88;2.97;;;26.70;99.90;;;;;;4987498;28;20078;-60
2023/06/13 05:44:36;;;;;;;6.28;2.45;;;26.70;99.90;;;;;;4985024;28;20434;-60
2023/06/13 05:47:02;;;;;;;3.95;2.38;;;26.70;99.90;;;;;;4994137;28;20434;-61
2023/06/13 05:49:28;;;;;;;4.80;2.20;;;26.70;99.90;;;;;;4993630;28;20069;-61
2023/06/13 05:51:54;;;;;;;8.02;2.95;;;26.70;99.90;;;;;;4993873;28;20110;-61
2023/06/13 05:54:20;;;;;;;4.88;2.22;;;26.70;99.90;;;;;;4993961;28;20478;-60
2023/06/13 05:56:46;;;;;;;6.60;2.50;;;26.70;99.90;;;;;;4993709;28;20084;-59
2023/06/13 05:59:14;;;;;;;6.85;2.33;;;26.70;99.90;;;;;;4988267;28;20371;-61
2023/06/13 06:01:45;;;;;;;4.50;2.60;;;26.70;99.90;;;;;;4986720;28;20050;-60
2023/06/13 06:04:11;;;;;;;4.72;2.22;;;26.70;99.90;;;;;;4968565;28;20053;-60
2023/06/13 06:06:37;;;;;;;4.00;2.35;;;26.70;99.90;;;;;;4993768;28;20018;-61
2023/06/13 06:09:04;;;;;;;2.70;2.05;;;26.70;99.90;;;;;;4992316;28;20487;-60
2023/06/13 06:11:31;;;;;;;5.78;1.67;;;26.70;99.90;;;;;;4992884;28;20030;-60
2023/06/13 06:13:56;;;;;;;5.07;1.92;;;26.70;99.90;;;;;;4993656;28;20371;-60
2023/06/13 06:16:22;;;;;;;3.28;1.67;;;26.70;99.90;;;;;;4993852;28;20069;-60
2023/06/13 06:18:48;;;;;;;2.83;1.52;;;26.60;99.90;;;;;;4993526;28;20030;-61
2023/06/13 06:21:14;;;;;;;4.82;2.10;;;26.70;99.90;;;;;;4993903;28;20058;-60
2023/06/13 06:23:42;;;;;;;4.63;2.00;;;26.60;99.90;;;;;;4993405;28;20490;-60
2023/06/13 06:26:09;;;;;;;5.43;2.17;;;26.60;99.90;;;;;;4984438;28;20038;-61
2023/06/13 06:28:35;;;;;;;4.47;1.60;;;26.60;99.90;;;;;;4989762;28;20101;-61
2023/06/13 06:31:01;;;;;;;3.80;1.95;;;26.70;99.90;;;;;;4984379;28;20115;-61
2023/06/13 06:33:27;;;;;;;6.70;2.30;;;26.70;99.90;;;;;;4988330;28;20031;-61
2023/06/13 06:35:53;;;;;;;4.03;1.60;;;26.60;99.90;;;;;;4993695;28;20100;-61
2023/06/13 06:38:19;;;;;;;6.85;1.52;;;26.60;99.90;;;;;;4993375;28;20467;-60
2023/06/13 06:40:45;;;;;;;4.78;1.63;;;26.60;99.90;;;;;;4980289;28;20021;-61
2023/06/13 06:43:11;;;;;;;3.58;1.77;;;26.70;99.90;;;;;;4992161;28;20022;-61
2023/06/13 06:45:37;;;;;;;3.80;1.80;;;26.60;99.90;;;;;;4964406;28;20023;-61
2023/06/13 06:48:03;;;;;;;5.38;1.80;;;26.60;99.90;;;;;;4993301;28;20478;-61
2023/06/13 06:50:29;;;;;;;8.98;2.30;;;26.60;99.90;;;;;;4991877;28;20034;-61
2023/06/13 06:52:55;;;;;;;6.43;2.25;;;26.60;99.90;;;;;;4981458;28;20109;-60
2023/06/13 06:55:21;;;;;;;6.38;2.42;;;26.60;99.90;;;;;;4992979;28;20030;-61
2023/06/13 06:57:47;;;;;;;33.03;15.38;;;26.60;99.90;;;;;;4992038;28;20027;-61
2023/06/13 07:00:14;;;;;;;23.30;10.50;;;26.60;99.90;;;;;;4992904;28;20023;-59
2023/06/13 07:02:43;;;;;;;21.67;7.13;;;26.60;99.90;;;;;;4989658;28;20035;-61
2023/06/13 07:05:10;;;;;;;15.13;7.00;;;26.60;99.90;;;;;;4972072;28;20368;-60
2023/06/13 07:07:36;;;;;;;15.95;7.25;;;26.60;99.90;;;;;;4991717;28;20033;-60
2023/06/13 07:10:05;;;;;;;8.63;4.07;;;26.60;99.90;;;;;;4992857;28;20034;-60
2023/06/13 07:12:33;;;;;;;6.43;3.80;;;26.60;99.90;;;;;;4992678;28;20024;-61
2023/06/13 07:14:59;;;;;;;8.77;3.83;;;26.60;99.90;;;;;;4992922;28;20157;-61
2023/06/13 07:17:25;;;;;;;6.93;3.00;;;26.60;99.90;;;;;;4991769;28;20518;-61
2023/06/13 07:19:51;;;;;;;8.88;3.25;;;26.60;99.90;;;;;;4987769;28;20031;-61
2023/06/13 07:22:17;;;;;;;7.65;2.35;;;26.50;99.90;;;;;;4985845;28;20029;-61
2023/06/13 07:24:42;;;;;;;9.30;3.28;;;26.60;99.90;;;;;;4995908;28;20037;-61
2023/06/13 07:27:08;;;;;;;10.35;2.20;;;26.50;99.90;;;;;;4986283;28;20090;-62
2023/06/13 07:29:34;;;;;;;5.90;2.13;;;26.50;99.90;;;;;;4993930;28;20034;-62
2023/06/13 07:32:01;;;;;;;5.32;2.45;;;26.50;99.90;;;;;;4996533;28;20019;-62
2023/06/13 07:34:26;;;;;;;6.80;3.22;;;26.50;99.90;;;;;;4994497;28;20034;-62
2023/06/13 07:36:54;;;;;;;4.95;2.10;;;26.60;99.90;;;;;;4994914;28;20109;-61
2023/06/13 07:39:20;;;;;;;6.55;1.55;;;26.60;99.90;;;;;;4981811;28;20023;-61
2023/06/13 07:41:48;;;;;;;3.38;1.40;;;26.50;99.90;;;;;;4995567;28;20030;-60
2023/06/13 07:44:14;;;;;;;3.35;1.30;;;26.50;99.90;;;;;;4995777;28;20026;-61
2023/06/13 07:46:40;;;;;;;5.07;1.65;;;26.50;99.90;;;;;;4989761;28;20073;-58
2023/06/13 07:49:06;;;;;;;4.20;1.65;;;26.50;99.90;;;;;;4995895;28;20030;-58
2023/06/13 07:51:32;;;;;;;4.40;1.40;;;26.40;99.90;;;;;;4995416;28;20031;-58
2023/06/13 07:53:58;;;;;;;2.47;1.60;;;26.50;99.90;;;;;;4996264;28;20019;-58
2023/06/13 07:56:24;;;;;;;5.43;1.42;;;26.50;99.90;;;;;;4995927;28;20026;-60
2023/06/13 07:58:50;;;;;;;3.25;1.50;;;26.50;99.90;;;;;;4995772;28;20100;-59
2023/06/13 08:01:16;;;;;;;4.05;1.70;;;26.50;99.90;;;;;;4981612;28;20499;-60
2023/06/13 08:03:43;;;;;;;4.35;1.60;;;26.50;99.90;;;;;;4995764;28;20498;-60
2023/06/13 08:06:09;;;;;;;;;;;26.50;99.90;;;;;;4996258;28;20032;-63
2023/06/13 08:08:35;;;;;;;6.95;1.40;;;26.50;99.90;;;;;;4995944;28;19906;-59
2023/06/13 08:11:01;;;;;;;5.32;1.30;;;26.60;99.90;;;;;;4995191;28;20118;-61
2023/06/13 08:13:27;;;;;;;4.65;1.48;;;26.60;99.90;;;;;;4995456;28;20378;-62
2023/06/13 08:15:53;;;;;;;6.90;1.83;;;26.60;99.90;;;;;;4995658;28;20064;-63
2023/06/13 08:18:19;;;;;;;5.10;1.70;;;26.60;99.90;;;;;;4995377;28;20026;-62
2023/06/13 08:20:45;;;;;;;6.18;1.80;;;26.50;99.90;;;;;;4993593;28;20501;-61
2023/06/13 08:23:12;;;;;;;5.97;1.80;;;26.50;99.90;;;;;;4994559;28;20038;-61
2023/06/13 08:25:37;;;;;;;7.28;2.28;;;26.50;99.90;;;;;;4993845;28;20517;-62
2023/06/13 08:28:06;;;;;;;8.55;3.42;;;26.50;99.90;;;;;;4995424;28;20042;-62
2023/06/13 08:30:32;;;;;;;7.53;2.35;;;26.50;99.90;;;;;;4994323;28;20038;-62
2023/06/13 08:33:02;;;;;;;7.55;2.45;;;26.40;99.90;;;;;;4994993;28;20045;-62
2023/06/13 08:35:29;;;;;;;8.35;2.28;;;26.50;99.90;;;;;;4994594;28;20457;-62
2023/06/13 08:37:54;;;;;;;10.38;3.30;;;26.50;99.90;;;;;;4995156;28;20022;-62
2023/06/13 08:40:21;;;;;;;11.02;3.08;;;26.40;99.90;;;;;;4995057;28;20497;-62
2023/06/13 08:42:47;;;;;;;8.25;2.25;;;26.40;99.90;;;;;;4994007;28;20026;-62
2023/06/13 08:45:13;;;;;;;7.43;2.67;;;26.40;99.90;;;;;;4983684;28;20031;-63
2023/06/13 08:47:46;;;;;;;7.50;2.83;;;26.40;99.90;;;;;;4994560;28;20386;-61
2023/06/13 08:50:13;;;;;;;6.25;2.00;;;26.40;99.90;;;;;;4994771;28;20026;-62
2023/06/13 08:52:41;;;;;;;4.23;2.30;;;26.40;99.90;;;;;;4995060;28;20033;-57
2023/06/13 08:55:12;;;;;;;5.90;2.40;;;26.40;99.90;;;;;;4994618;28;20268;-56
2023/06/13 08:57:42;;;;;;;10.35;2.67;;;26.30;99.90;;;;;;4986859;28;20534;-58
2023/06/13 09:00:11;;;;;;;11.52;3.17;;;26.30;99.90;;;;;;4990133;28;20096;-62
2023/06/13 09:02:42;;;;;;;6.35;2.42;;;26.30;99.90;;;;;;4980814;28;20138;-64
2023/06/13 09:05:15;;;;;;;7.78;2.35;;;26.30;99.90;;;;;;4994482;28;20038;-64
2023/06/13 09:07:45;;;;;;;8.30;2.33;;;26.30;99.90;;;;;;4994835;28;20410;-65
2023/06/13 09:10:12;;;;;;;7.38;2.67;;;26.30;99.90;;;;;;4993589;28;20053;-63
2023/06/13 09:12:43;;;;;;;6.22;2.10;;;26.20;99.90;;;;;;4972177;28;20045;-61
2023/06/13 09:15:09;;;;;;;5.47;2.40;;;26.20;99.90;;;;;;4974502;28;20027;-62
2023/06/13 09:17:35;;;;;;;5.20;1.80;;;26.30;99.90;;;;;;4977137;28;20106;-63
2023/06/13 09:20:04;;;;;;;5.10;1.90;;;26.30;99.90;;;;;;4974517;28;20015;-65
2023/06/13 09:22:33;;;;;;;9.77;2.80;;;26.20;99.90;;;;;;4975167;28;20027;-63
2023/06/13 09:25:00;;;;;;;12.10;2.80;;;26.20;99.90;;;;;;4973220;28;20077;-64
2023/06/13 09:27:27;;;;;;;5.30;2.75;;;26.30;99.90;;;;;;4974568;28;20133;-64
2023/06/13 09:29:53;;;;;;;6.60;1.90;;;26.30;99.90;;;;;;4973547;28;20075;-64
2023/06/13 09:32:22;;;;;;;5.32;2.55;;;26.20;99.90;;;;;;4971412;28;20125;-63
2023/06/13 09:34:51;;;;;;;10.25;3.92;;;26.30;99.90;;;;;;4973988;28;20478;-65
2023/06/13 09:37:17;;;;;;;9.02;2.47;;;26.30;99.90;;;;;;4973974;28;20035;-63
2023/06/13 09:39:56;;;;;;;5.55;2.40;;;26.30;99.90;;;;;;4974573;28;20103;-61
2023/06/13 09:42:23;;;;;;;6.68;2.00;;;26.30;99.90;;;;;;4972359;28;20438;-59
2023/06/13 09:44:52;;;;;;;4.88;2.25;;;26.30;99.90;;;;;;4972337;28;20037;-60
2023/06/13 09:47:23;;;;;;;6.50;2.00;;;26.30;99.90;;;;;;4971762;28;20034;-60
2023/06/13 09:49:54;;;;;;;6.03;2.38;;;26.30;99.90;;;;;;4972295;28;20039;-60
2023/06/13 09:52:23;;;;;;;5.78;2.10;;;26.30;99.90;;;;;;4972019;28;20494;-60
2023/06/13 09:54:49;;;;;;;6.20;2.38;;;26.20;99.90;;;;;;4970764;28;20073;-65
2023/06/13 09:57:15;;;;;;;10.30;3.13;;;26.20;99.90;;;;;;4970435;28;20024;-63
2023/06/13 09:59:41;;;;;;;9.52;2.22;;;26.20;99.90;;;;;;4972034;28;20039;-61
2023/06/13 10:02:07;;;;;;;4.70;2.55;;;26.20;99.90;;;;;;4972180;28;20065;-62
2023/06/13 10:04:33;;;;;;;5.30;2.25;;;26.20;99.90;;;;;;4971852;28;20038;-65
2023/06/13 10:06:59;;;;;;;8.55;2.22;;;26.20;99.90;;;;;;4972348;28;20043;-63
2023/06/13 10:09:25;;;;;;;7.78;2.25;;;26.20;99.90;;;;;;4971912;28;20030;-61
2023/06/13 10:11:53;;;;;;;8.25;2.38;;;26.20;99.90;;;;;;4972024;28;20098;-60
2023/06/13 10:14:22;;;;;;;6.47;2.00;;;26.30;99.90;;;;;;4972414;28;20154;-61
2023/06/13 10:16:56;;;;;;;7.50;1.80;;;26.30;99.90;;;;;;4970573;28;20026;-62
2023/06/13 10:19:24;;;;;;;4.65;1.75;;;26.30;99.90;;;;;;4971302;28;20022;-63
2023/06/13 10:21:51;;;;;;;5.47;2.08;;;26.30;99.90;;;;;;4971741;28;20530;-62
2023/06/13 10:24:18;;;;;;;7.68;2.28;;;26.30;99.90;;;;;;4971542;28;20022;-63
2023/06/13 10:26:46;;;;;;;5.88;2.53;;;26.40;99.90;;;;;;4970381;28;20031;-63
2023/06/13 10:29:23;;;;;;;7.68;2.67;;;26.40;99.90;;;;;;4970180;28;20109;-62
2023/06/13 10:32:30;;;;;;;3.72;1.80;;;26.40;99.90;;;;;;4970637;28;20049;-62
2023/06/13 10:35:16;;;;;;;8.38;2.13;;;26.40;99.90;;;;;;4936131;28;20036;-62
2023/06/13 10:38:01;;;;;;;5.40;2.22;;;26.50;99.90;;;;;;4966734;28;20034;-62
2023/06/13 10:40:51;;;;;;;6.40;2.08;;;26.50;99.90;;;;;;4969544;28;20078;-61
2023/06/13 10:43:26;;;;;;;7.20;2.10;;;26.50;99.90;;;;;;4969500;28;20045;-60
2023/06/13 10:45:57;;;;;;;5.82;1.98;;;26.50;99.90;;;;;;4970577;28;20031;-60
2023/06/13 10:48:48;;;;;;;6.57;2.40;;;26.50;99.90;;;;;;4970042;28;20026;-60
2023/06/13 10:51:23;;;;;;;8.05;2.72;;;26.60;99.90;;;;;;4966900;28;20059;-60
2023/06/13 10:54:06;;;;;;;8.20;2.30;;;26.60;99.90;;;;;;4968483;28;20031;-59
2023/06/13 10:56:35;;;;;;;6.57;2.35;;;26.60;99.90;;;;;;4968033;28;20027;-59
2023/06/13 10:59:19;;;;;;;7.07;2.33;;;26.60;99.90;;;;;;4973039;28;20041;-59
2023/06/13 11:01:45;;;;;;;5.75;2.72;;;26.60;99.90;;;;;;4971320;28;20438;-59
2023/06/13 11:04:12;;;;;;;6.43;2.53;;;26.60;99.90;;;;;;4972105;28;20447;-58
2023/06/13 11:06:40;;;;;;;5.70;2.50;;;26.60;99.90;;;;;;4975302;28;20022;-58
2023/06/13 11:09:21;;;;;;;4.72;2.72;;;26.70;99.90;;;;;;4975032;28;20046;-61
2023/06/13 11:11:56;;;;;;;6.75;2.60;;;26.70;99.90;;;;;;4975700;28;20031;-62
2023/06/13 11:14:27;;;;;;;5.38;2.55;;;26.70;99.90;;;;;;4976548;28;20023;-63
2023/06/13 11:16:54;;;;;;;10.02;3.38;;;26.70;99.90;;;;;;4975874;28;20030;-61
2023/06/13 11:19:23;;;;;;;9.50;3.20;;;26.70;99.90;;;;;;4977123;28;20537;-60
2023/06/13 11:22:10;;;;;;;13.35;4.50;;;26.70;99.90;;;;;;4981856;28;20501;-58
2023/06/13 11:24:36;;;;;;;;;;;26.70;99.90;;;;;;4977181;28;20899;-62
2023/06/13 11:27:13;;;;;;;17.23;4.50;;;26.70;99.90;;;;;;4977278;28;19988;-58
2023/06/13 11:29:39;;;;;;;;;;;26.70;99.90;;;;;;4976339;28;20081;-60
2023/06/13 11:32:08;;;;;;;11.30;3.08;;;26.70;99.90;;;;;;4976387;28;19933;-60
2023/06/13 11:34:38;;;;;;;15.18;3.45;;;26.70;99.90;;;;;;4978473;28;20023;-60
2023/06/13 11:37:28;;;;;;;9.75;3.75;;;26.60;99.90;;;;;;4973773;28;20030;-64
2023/06/13 11:39:57;;;;;;;12.82;3.88;;;26.60;99.90;;;;;;4977831;28;20030;-59
2023/06/13 11:42:24;;;;;;;15.55;4.07;;;26.60;99.90;;;;;;4975389;28;20076;-60
2023/06/13 11:44:50;;;;;;;7.70;3.50;;;26.60;99.90;;;;;;4972667;28;20065;-60
2023/06/13 11:47:16;;;;;;;11.95;3.08;;;26.60;99.90;;;;;;4972019;28;20034;-60
2023/06/13 11:49:54;;;;;;;12.35;3.60;;;26.50;99.90;;;;;;4972297;28;20035;-59
2023/06/13 11:52:20;;;;;;;11.57;4.63;;;26.50;99.90;;;;;;4974497;28;20362;-60
2023/06/13 11:54:47;;;;;;;13.27;3.25;;;26.60;99.90;;;;;;4973846;28;20113;-60
2023/06/13 11:57:14;;;;;;;9.73;4.32;;;26.50;99.90;;;;;;4970382;28;20027;-60
2023/06/13 11:59:40;;;;;;;12.68;3.60;;;26.60;99.90;;;;;;4974052;28;20031;-59
2023/06/13 12:02:06;;;;;;;15.50;3.08;;;26.50;99.90;;;;;;4972722;28;20058;-60
2023/06/13 12:04:32;;;;;;;14.93;3.45;;;26.50;99.90;;;;;;4973554;28;20509;-59
2023/06/13 12:07:01;;;;;;;11.60;2.42;;;26.60;99.90;;;;;;4971149;28;20035;-59
2023/06/13 12:09:27;;;;;;;14.32;3.20;;;26.50;99.90;;;;;;4973650;28;20035;-59
2023/06/13 12:11:53;;;;;;;14.52;3.10;;;26.50;99.90;;;;;;4974070;28;20395;-59
2023/06/13 12:14:20;;;;;;;11.87;3.90;;;26.50;99.90;;;;;;4973150;28;20038;-58
2023/06/13 12:16:49;;;;;;;18.25;4.20;;;26.60;99.90;;;;;;4973056;28;20459;-60
2023/06/13 12:19:20;;;;;;;15.77;4.95;;;26.50;99.90;;;;;;4975231;28;20097;-61
2023/06/13 12:21:46;;;;;;;14.35;4.07;;;26.50;99.90;;;;;;4973330;28;20061;-60
2023/06/13 12:24:12;;;;;;;18.85;5.03;;;26.50;99.90;;;;;;4968981;28;20038;-60
2023/06/13 12:26:44;;;;;;;24.25;6.22;;;26.40;99.90;;;;;;4973462;28;20485;-60
2023/06/13 12:29:11;;;;;;;16.13;5.47;;;26.40;99.90;;;;;;4974229;28;20043;-60
2023/06/13 12:31:44;;;;;;;17.67;5.95;;;26.30;99.90;;;;;;4970615;28;20055;-59
2023/06/13 12:34:32;;;;;;;18.17;4.53;;;26.30;99.90;;;;;;4972486;28;20069;-58
2023/06/13 12:37:03;;;;;;;13.38;3.40;;;26.30;99.90;;;;;;4974163;28;20019;-58
2023/06/13 12:39:30;;;;;;;12.73;3.65;;;26.30;99.90;;;;;;4974083;28;20027;-59
2023/06/13 12:42:07;;;;;;;16.02;4.35;;;26.30;99.90;;;;;;4972695;28;20475;-57
2023/06/13 12:44:34;;;;;;;11.95;3.63;;;26.30;99.90;;;;;;4973597;28;20034;-57
2023/06/13 12:47:04;;;;;;;13.52;3.88;;;26.30;99.90;;;;;;4973943;28;20035;-58
2023/06/13 12:49:40;;;;;;;10.82;4.32;;;26.40;99.90;;;;;;4973626;28;20043;-59
2023/06/13 12:52:13;;;;;;;10.88;4.35;;;26.40;99.90;;;;;;4972249;28;20110;-60
2023/06/13 12:54:39;;;;;;;9.38;3.58;;;26.40;99.90;;;;;;4973469;28;20050;-61